Terminal Aerodrome Forecast
Issued by NWS

Home | Current Version | Previous Version | Text Only | Print | Product List | Glossary On
Versions: 1 2 3 4 5 6 7 8 9 10 11 12 13 14 15 16 17 18 19 20 21 22 23 24 25 26 27 28 29 30 31 32 33 34 35 36 37 38 39 40 41 42 43
000
FTUS42 KGSP 231100
TAFHKY
TAF
KHKY 231128Z 2312/2412 00000KT 1/4SM FG BKN001
      TEMPO 2312/2314 23004KT 2SM BR BKN006
     FM231400 23003KT P6SM BKN050
     FM231800 22007KT P6SM VCSH BKN060 PROB30 2321/2324 4SM TSRA
      BKN040CB
     FM240800 00000KT 5SM BR BKN250=

USA.gov is the U.S. government's official web portal to all federal, state and local government web resources and services.